createdAt,value
2023-03-29T00:02:30.721Z,98902.84
2023-03-29T00:04:58.422Z,98902.25
2023-03-29T00:07:26.629Z,98902.25
2023-03-29T00:09:53.761Z,98903.03
2023-03-29T00:12:20.880Z,98910.31
2023-03-29T00:14:48.236Z,98899.47
2023-03-29T00:17:15.702Z,98916.34
2023-03-29T00:19:46.875Z,98900.19
2023-03-29T00:22:14.311Z,98899.38
2023-03-29T00:24:41.509Z,98919.22
2023-03-29T00:27:08.669Z,98914.16
2023-03-29T00:29:35.875Z,98923.19
2023-03-29T00:32:03.006Z,98903.50
2023-03-29T00:34:32.845Z,98900.34
2023-03-29T00:36:59.998Z,98904.59
2023-03-29T00:39:28.621Z,98907.00
2023-03-29T00:41:56.081Z,98905.84
2023-03-29T00:44:58.987Z,98892.06
2023-03-29T00:47:55.900Z,98906.63
2023-03-29T00:50:31.214Z,98905.53
2023-03-29T00:53:03.861Z,98898.91
2023-03-29T00:55:43.193Z,98880.97
2023-03-29T00:58:14.606Z,98902.81
2023-03-29T01:00:52.449Z,98877.59
2023-03-29T01:03:27.721Z,98880.19
2023-03-29T01:06:00.972Z,98879.16
2023-03-29T01:08:35.185Z,98880.56
2023-03-29T01:11:31.224Z,98894.81
2023-03-29T01:14:04.096Z,98899.28
2023-03-29T01:16:35.355Z,98897.63
2023-03-29T01:19:02.868Z,98894.31
2023-03-29T01:21:51.920Z,98910.69
2023-03-29T01:24:34.243Z,98897.25
2023-03-29T01:27:11.656Z,98913.97
2023-03-29T01:29:50.540Z,98917.16
2023-03-29T01:32:23.654Z,98918.97
2023-03-29T01:35:12.007Z,98923.56
2023-03-29T01:37:58.717Z,98922.28
2023-03-29T01:40:28.453Z,98923.50
2023-03-29T01:43:28.246Z,98922.91
2023-03-29T01:46:05.461Z,98925.38
2023-03-29T01:48:57.024Z,98932.41
2023-03-29T01:51:42.178Z,98938.75
2023-03-29T01:54:16.593Z,98929.75
2023-03-29T01:56:45.859Z,98943.06
2023-03-29T01:59:22.918Z,98944.69
2023-03-29T02:01:54.714Z,98945.41
2023-03-29T02:04:30.254Z,98941.78
2023-03-29T02:06:59.752Z,98942.81
2023-03-29T02:09:29.753Z,98941.72
2023-03-29T02:12:01.261Z,98945.34
2023-03-29T02:14:30.791Z,98949.72
2023-03-29T02:17:15.374Z,98948.00
2023-03-29T02:19:43.748Z,98952.72
2023-03-29T02:22:11.179Z,98952.44
2023-03-29T02:24:41.101Z,98974.75
2023-03-29T02:27:08.718Z,98964.78
2023-03-29T02:29:36.034Z,98976.16
2023-03-29T02:32:21.631Z,98962.41
2023-03-29T02:34:59.066Z,98971.75
2023-03-29T02:37:30.619Z,98980.53
2023-03-29T02:39:59.321Z,98978.59
2023-03-29T02:42:28.181Z,98964.59
2023-03-29T02:44:59.152Z,98968.28
2023-03-29T02:47:33.256Z,98971.81
2023-03-29T02:50:00.794Z,98969.50
2023-03-29T02:52:34.456Z,98986.41
2023-03-29T02:55:06.008Z,98987.91
2023-03-29T02:57:33.511Z,98978.84
2023-03-29T03:00:01.397Z,98976.72
2023-03-29T03:02:30.493Z,98986.94
2023-03-29T03:04:58.035Z,98987.50
2023-03-29T03:07:25.546Z,98982.56
2023-03-29T03:09:53.251Z,98978.53
2023-03-29T03:12:20.746Z,98978.75
2023-03-29T03:14:48.596Z,98985.25
2023-03-29T03:17:19.268Z,98993.28
2023-03-29T03:19:47.738Z,98984.09
2023-03-29T03:22:15.550Z,98980.47
2023-03-29T03:24:43.485Z,98980.03
2023-03-29T03:27:12.075Z,98981.91
2023-03-29T03:29:39.767Z,98984.84
2023-03-29T03:32:25.694Z,98980.72
2023-03-29T03:35:12.436Z,98979.38
2023-03-29T03:37:41.208Z,98967.25
2023-03-29T03:40:09.690Z,98980.59
2023-03-29T03:42:37.863Z,98972.72
2023-03-29T03:45:06.210Z,98989.38
2023-03-29T03:48:10.175Z,98987.50
2023-03-29T03:50:57.292Z,98973.75
2023-03-29T03:53:28.120Z,98980.88
2023-03-29T03:56:14.206Z,98982.06
2023-03-29T03:59:07.930Z,98983.06
2023-03-29T04:01:48.043Z,98985.91
2023-03-29T04:04:20.333Z,98987.06
2023-03-29T04:07:13.337Z,98985.97
2023-03-29T04:09:57.298Z,98986.34
2023-03-29T04:12:47.507Z,99002.63
2023-03-29T04:15:18.306Z,98989.38
2023-03-29T04:17:52.135Z,98998.88
2023-03-29T04:20:26.642Z,99010.75
2023-03-29T04:22:54.528Z,98994.44
2023-03-29T04:25:22.633Z,98994.94
2023-03-29T04:28:12.347Z,99027.34
2023-03-29T04:30:49.310Z,99021.94
2023-03-29T04:33:41.685Z,99000.81
2023-03-29T04:36:09.910Z,98999.84
2023-03-29T04:38:38.165Z,99003.66
2023-03-29T04:41:05.807Z,99004.22
2023-03-29T04:44:08.715Z,99002.75
2023-03-29T04:46:36.142Z,99012.03
2023-03-29T04:49:20.468Z,99016.03
2023-03-29T04:51:51.209Z,99018.56
2023-03-29T04:54:21.922Z,99018.00
2023-03-29T04:57:14.950Z,99011.59
2023-03-29T04:59:54.890Z,99022.56
2023-03-29T05:02:58.550Z,99019.81
2023-03-29T05:05:28.090Z,99039.34
2023-03-29T05:07:57.037Z,99026.13
2023-03-29T05:10:32.063Z,99044.19
2023-03-29T05:12:59.673Z,99044.78
2023-03-29T05:15:27.772Z,99024.91
2023-03-29T05:17:55.958Z,99029.63
2023-03-29T05:20:23.549Z,99042.19
2023-03-29T05:22:50.885Z,99041.16
2023-03-29T05:25:37.931Z,99038.84
2023-03-29T05:28:05.137Z,99046.47
2023-03-29T05:30:32.625Z,99042.03
2023-03-29T05:33:08.303Z,99042.25
2023-03-29T05:35:36.291Z,99046.22
2023-03-29T05:38:06.992Z,99048.25
2023-03-29T05:40:36.075Z,99042.47
2023-03-29T05:43:23.751Z,99054.59
2023-03-29T05:45:56.770Z,99042.41
2023-03-29T05:48:25.189Z,99046.94
2023-03-29T05:50:54.856Z,99045.53
2023-03-29T05:53:23.959Z,99057.63
2023-03-29T05:55:51.882Z,99064.41
2023-03-29T05:58:21.876Z,99080.84
2023-03-29T06:00:50.474Z,99068.44
2023-03-29T06:03:37.125Z,99062.09
2023-03-29T06:06:05.459Z,99062.91
2023-03-29T06:08:35.428Z,99064.69
2023-03-29T06:11:13.788Z,99063.81
2023-03-29T06:14:07.044Z,99060.19
2023-03-29T06:16:39.636Z,99073.47
2023-03-29T06:19:08.991Z,99063.25
2023-03-29T06:21:37.440Z,99054.56
2023-03-29T06:24:07.147Z,99051.97
2023-03-29T06:26:39.718Z,99064.31
2023-03-29T06:29:07.088Z,99062.78
2023-03-29T06:31:36.524Z,99087.47
2023-03-29T06:34:05.190Z,99079.25
2023-03-29T06:36:55.318Z,99056.59
2023-03-29T06:39:22.791Z,99061.50
2023-03-29T06:41:53.303Z,99058.00
2023-03-29T06:44:33.013Z,99086.47
2023-03-29T06:47:07.751Z,99065.50
2023-03-29T06:49:35.129Z,99065.19
2023-03-29T06:52:11.569Z,99063.72
2023-03-29T06:54:39.205Z,99069.31
2023-03-29T06:57:06.337Z,99060.28
2023-03-29T06:59:35.144Z,99074.84
2023-03-29T07:02:23.012Z,99028.28
2023-03-29T07:04:56.588Z,99059.53
2023-03-29T07:07:53.864Z,99107.03
2023-03-29T07:10:47.767Z,99073.78
2023-03-29T07:13:44.523Z,99069.44
2023-03-29T07:16:15.096Z,99089.84
2023-03-29T07:18:49.509Z,99067.97
2023-03-29T07:21:31.203Z,99048.13
2023-03-29T07:23:58.685Z,99098.22
2023-03-29T07:26:28.890Z,99089.97
2023-03-29T07:28:59.126Z,99065.75
2023-03-29T07:31:26.370Z,99064.88
2023-03-29T07:34:12.380Z,99058.81
2023-03-29T07:36:40.065Z,99090.69
2023-03-29T07:39:09.430Z,99117.34
2023-03-29T07:41:39.030Z,99095.81
2023-03-29T07:44:12.299Z,99105.66
2023-03-29T07:46:39.548Z,99101.16
2023-03-29T07:49:08.463Z,99075.06
2023-03-29T07:51:37.020Z,99085.97
2023-03-29T07:54:08.937Z,99050.47
2023-03-29T07:56:42.688Z,99047.00
2023-03-29T07:59:18.376Z,99066.00
2023-03-29T08:01:51.045Z,99045.28
2023-03-29T08:04:25.754Z,99057.28
2023-03-29T08:07:10.881Z,99062.41
2023-03-29T08:09:58.331Z,99046.72
2023-03-29T08:12:53.946Z,99025.47
2023-03-29T08:15:28.418Z,99013.38
2023-03-29T08:17:56.115Z,99003.19
2023-03-29T08:20:23.456Z,99011.50
2023-03-29T08:22:55.330Z,99017.34
2023-03-29T08:25:42.728Z,99014.38
2023-03-29T08:28:10.597Z,99007.09
2023-03-29T08:30:45.158Z,98978.81
2023-03-29T08:33:12.547Z,98997.88
2023-03-29T08:35:39.928Z,99001.91
2023-03-29T08:38:17.057Z,98997.78
2023-03-29T08:40:56.667Z,99005.84
2023-03-29T08:43:31.844Z,98987.03
2023-03-29T08:46:39.939Z,98978.88
2023-03-29T08:49:35.607Z,98989.69
2023-03-29T08:52:14.569Z,98978.72
2023-03-29T08:54:48.985Z,98970.09
2023-03-29T08:57:37.068Z,98976.22
2023-03-29T09:00:21.461Z,98984.66
2023-03-29T09:02:54.159Z,98972.94
2023-03-29T09:05:32.315Z,98973.22
2023-03-29T09:08:19.220Z,98965.13
2023-03-29T09:11:20.702Z,98968.66
2023-03-29T09:13:57.276Z,98959.53
2023-03-29T09:16:45.361Z,98966.66
2023-03-29T09:19:27.464Z,98955.63
2023-03-29T09:22:20.115Z,98946.44
2023-03-29T09:25:24.269Z,98948.09
2023-03-29T09:28:03.929Z,98934.59
2023-03-29T09:30:53.780Z,98933.53
2023-03-29T09:33:33.030Z,98915.66
2023-03-29T09:36:31.172Z,98936.44
2023-03-29T09:38:59.392Z,98932.13
2023-03-29T09:41:44.200Z,98911.38
2023-03-29T09:44:30.103Z,98922.09
2023-03-29T09:47:17.762Z,98922.53
2023-03-29T09:49:50.052Z,98913.66
2023-03-29T09:52:21.355Z,98897.91
2023-03-29T09:55:04.174Z,98914.53
2023-03-29T09:57:52.614Z,98894.91
2023-03-29T10:00:23.229Z,98904.03
2023-03-29T10:02:56.054Z,98903.69
2023-03-29T10:05:36.979Z,98901.63
2023-03-29T10:08:19.945Z,98888.50
2023-03-29T10:10:50.424Z,98897.94
2023-03-29T10:13:28.831Z,98909.13
2023-03-29T10:16:08.840Z,98884.75
2023-03-29T10:18:43.938Z,98899.59
2023-03-29T10:21:22.549Z,98885.06
2023-03-29T10:23:57.130Z,98892.97
2023-03-29T10:26:33.290Z,98886.56
2023-03-29T10:29:08.176Z,98870.81
2023-03-29T10:31:41.980Z,98881.78
2023-03-29T10:34:18.893Z,98861.72
2023-03-29T10:37:00.929Z,98846.94
2023-03-29T10:39:33.285Z,98809.88
2023-03-29T10:42:04.804Z,98806.91
2023-03-29T10:44:37.612Z,98861.00
2023-03-29T10:47:18.265Z,98871.69
2023-03-29T10:49:51.059Z,98877.84
2023-03-29T10:52:19.163Z,98860.03
2023-03-29T10:54:47.940Z,98850.59
2023-03-29T10:57:46.082Z,98865.50
2023-03-29T11:00:33.688Z,98842.09
2023-03-29T11:03:35.639Z,98852.44
2023-03-29T11:06:23.704Z,98853.47
2023-03-29T11:08:59.992Z,98835.94
2023-03-29T11:12:14.869Z,98844.47
2023-03-29T11:14:52.862Z,98864.44
2023-03-29T11:17:34.270Z,98845.31
2023-03-29T11:20:04.442Z,98832.72
2023-03-29T11:22:47.914Z,98823.63
2023-03-29T11:25:27.183Z,98818.13
2023-03-29T11:28:32.483Z,98828.78
2023-03-29T11:31:45.292Z,98808.06
2023-03-29T11:34:25.149Z,98805.59
2023-03-29T11:37:21.387Z,98806.56
2023-03-29T11:40:07.412Z,98800.44
2023-03-29T11:42:40.848Z,98799.03
2023-03-29T11:45:16.576Z,98797.69
2023-03-29T11:47:46.512Z,98789.69
2023-03-29T11:50:29.595Z,98789.59
2023-03-29T11:53:10.381Z,98805.84
2023-03-29T11:55:40.388Z,98798.50
2023-03-29T11:58:29.471Z,98779.94
2023-03-29T12:01:20.328Z,98827.00
2023-03-29T12:03:56.370Z,98800.88
2023-03-29T12:06:32.259Z,98782.44
2023-03-29T12:09:14.856Z,98806.03
2023-03-29T12:12:14.888Z,98788.03
2023-03-29T12:15:00.653Z,98793.47
2023-03-29T12:17:33.409Z,98792.47
2023-03-29T12:20:18.639Z,98788.28
2023-03-29T12:22:51.347Z,98768.91
2023-03-29T12:25:28.682Z,98763.41
2023-03-29T12:28:02.155Z,98772.25
2023-03-29T12:30:43.924Z,98795.00
2023-03-29T12:33:22.962Z,98795.19
2023-03-29T12:37:01.382Z,98790.44
2023-03-29T12:39:55.394Z,98777.13
2023-03-29T12:43:05.606Z,98776.81
2023-03-29T12:46:06.221Z,98769.50
2023-03-29T12:48:35.763Z,98791.19
2023-03-29T12:51:13.829Z,98778.78
2023-03-29T12:53:46.337Z,98785.13
2023-03-29T12:56:36.711Z,98766.31
2023-03-29T12:59:22.327Z,98807.44
2023-03-29T13:02:04.574Z,98795.72
2023-03-29T13:04:51.455Z,98766.66
2023-03-29T13:07:26.700Z,98810.31
2023-03-29T13:10:01.814Z,98799.13
2023-03-29T13:12:37.739Z,98777.56
2023-03-29T13:15:08.271Z,98763.00
2023-03-29T13:18:02.000Z,98790.09
2023-03-29T13:20:57.233Z,98779.97
2023-03-29T13:24:03.441Z,98767.13
2023-03-29T13:26:51.863Z,98759.09
2023-03-29T13:29:49.163Z,98782.91
2023-03-29T13:32:47.482Z,98760.75
2023-03-29T13:35:28.242Z,98744.16
2023-03-29T13:38:33.332Z,98747.34
2023-03-29T13:41:10.438Z,98736.50
2023-03-29T13:43:53.720Z,98722.34
2023-03-29T13:46:37.745Z,98746.81
2023-03-29T13:49:16.538Z,98721.75
2023-03-29T13:51:57.263Z,98739.50
2023-03-29T13:54:35.452Z,98750.09
2023-03-29T13:57:21.892Z,98718.41
2023-03-29T14:00:19.525Z,98728.91
2023-03-29T14:02:58.313Z,98741.16
2023-03-29T14:05:34.808Z,98746.06
2023-03-29T14:08:16.620Z,98701.69
2023-03-29T14:10:45.740Z,98718.31
2023-03-29T14:13:24.861Z,98723.19
2023-03-29T14:15:59.775Z,98719.09
2023-03-29T14:18:38.132Z,98721.53
2023-03-29T14:21:19.456Z,98701.38
2023-03-29T14:23:54.232Z,98705.13
2023-03-29T14:26:24.618Z,98715.44
2023-03-29T14:29:02.590Z,98698.41
2023-03-29T14:31:40.322Z,98689.91
2023-03-29T14:34:16.292Z,98675.63
2023-03-29T14:36:49.565Z,98675.88
2023-03-29T14:39:19.592Z,98681.06
2023-03-29T14:41:52.524Z,98680.78
2023-03-29T14:44:25.994Z,98680.03
2023-03-29T14:46:54.084Z,98672.97
2023-03-29T14:49:23.501Z,98685.31
2023-03-29T14:51:52.096Z,98698.81
2023-03-29T14:54:34.627Z,98698.13
2023-03-29T14:57:08.619Z,98689.69
2023-03-29T14:59:42.532Z,98701.31
2023-03-29T15:02:30.485Z,98693.38
2023-03-29T15:05:25.701Z,98679.78
2023-03-29T15:07:57.610Z,98684.09
2023-03-29T15:10:27.583Z,98705.38
2023-03-29T15:12:56.368Z,98687.25
2023-03-29T15:15:26.376Z,98680.75
2023-03-29T15:17:54.141Z,98702.66
2023-03-29T15:20:35.104Z,98687.91
2023-03-29T15:23:18.165Z,98695.19
2023-03-29T15:25:59.083Z,98690.72
2023-03-29T15:28:33.078Z,98700.97
2023-03-29T15:31:18.316Z,98687.13
2023-03-29T15:33:47.261Z,98697.25
2023-03-29T15:36:20.532Z,98682.22
2023-03-29T15:38:50.293Z,98683.78
2023-03-29T15:41:17.732Z,98679.19
2023-03-29T15:43:45.179Z,98671.59
2023-03-29T15:46:15.458Z,98683.84
2023-03-29T15:48:54.788Z,98674.63
2023-03-29T15:51:22.294Z,98676.03
2023-03-29T15:53:51.982Z,98672.13
2023-03-29T15:56:21.496Z,98662.25
2023-03-29T15:58:49.512Z,98657.63
2023-03-29T16:01:34.292Z,98675.88
2023-03-29T16:04:12.655Z,98671.59
2023-03-29T16:06:40.976Z,98675.41
2023-03-29T16:09:09.115Z,98651.03
2023-03-29T16:11:36.427Z,98662.22
2023-03-29T16:14:07.081Z,98671.44
2023-03-29T16:16:35.348Z,98656.94
2023-03-29T16:19:02.603Z,98661.25
2023-03-29T16:21:29.951Z,98676.16
2023-03-29T16:23:59.540Z,98673.47
2023-03-29T16:26:32.032Z,98668.22
2023-03-29T16:29:01.843Z,98674.16
2023-03-29T16:31:31.451Z,98681.72
2023-03-29T16:33:58.755Z,98669.19
2023-03-29T16:36:26.538Z,98674.47
2023-03-29T16:38:53.878Z,98681.53
2023-03-29T16:41:21.887Z,98678.38
2023-03-29T16:43:49.120Z,98678.47
2023-03-29T16:46:16.369Z,98675.38
2023-03-29T16:48:43.686Z,98681.38
2023-03-29T16:51:11.190Z,98670.22
2023-03-29T16:53:38.542Z,98666.78
2023-03-29T16:56:06.272Z,98666.44
2023-03-29T16:58:33.490Z,98675.50
2023-03-29T17:01:10.002Z,98673.66
2023-03-29T17:03:37.733Z,98675.47
2023-03-29T17:06:06.173Z,98681.59
2023-03-29T17:08:33.650Z,98684.69
2023-03-29T17:11:01.697Z,98682.34
2023-03-29T17:13:30.023Z,98691.41
2023-03-29T17:15:58.038Z,98686.38
2023-03-29T17:18:26.798Z,98685.88
2023-03-29T17:20:57.528Z,98689.19
2023-03-29T17:23:25.022Z,98702.03
2023-03-29T17:25:54.889Z,98702.97
2023-03-29T17:28:22.898Z,98707.28
2023-03-29T17:30:50.333Z,98711.19
2023-03-29T17:33:19.087Z,98714.25
2023-03-29T17:35:48.827Z,98728.03
2023-03-29T17:38:16.180Z,98729.88
2023-03-29T17:40:43.461Z,98731.84
2023-03-29T17:43:10.644Z,98742.00
2023-03-29T17:45:37.817Z,98742.28
2023-03-29T17:48:06.379Z,98751.53
2023-03-29T17:50:34.614Z,98753.16
2023-03-29T17:53:01.708Z,98759.84
2023-03-29T17:55:28.862Z,98756.44
2023-03-29T17:57:56.638Z,98747.81
2023-03-29T18:00:23.989Z,98757.59
2023-03-29T18:02:51.700Z,98758.84
2023-03-29T18:05:18.979Z,98768.53
2023-03-29T18:07:46.752Z,98766.81
2023-03-29T18:10:13.944Z,98772.84
2023-03-29T18:12:41.456Z,98765.66
2023-03-29T18:15:09.427Z,98759.28
2023-03-29T18:17:36.951Z,98767.16
2023-03-29T18:20:11.977Z,98772.09
2023-03-29T18:22:42.105Z,98767.16
2023-03-29T18:25:10.419Z,98759.63
2023-03-29T18:27:39.845Z,98766.69
2023-03-29T18:30:08.888Z,98766.22
2023-03-29T18:32:37.069Z,98774.09
2023-03-29T18:35:05.548Z,98771.50
2023-03-29T18:37:33.157Z,98781.19
2023-03-29T18:40:00.602Z,98778.38
2023-03-29T18:42:28.076Z,98783.31
2023-03-29T18:44:55.881Z,98793.19
2023-03-29T18:47:22.940Z,98790.94
2023-03-29T18:49:53.465Z,98797.63
2023-03-29T18:52:20.615Z,98799.47
2023-03-29T18:54:48.100Z,98788.59
2023-03-29T18:57:15.408Z,98799.22
2023-03-29T18:59:42.784Z,98800.78
2023-03-29T19:02:10.366Z,98802.16
2023-03-29T19:04:37.476Z,98795.56
2023-03-29T19:09:50.234Z,98799.34
2023-03-29T19:12:17.357Z,98799.47
2023-03-29T19:14:44.971Z,98806.00
2023-03-29T19:17:12.116Z,98800.25
2023-03-29T19:19:39.263Z,98804.66
2023-03-29T19:22:06.820Z,98804.34
2023-03-29T19:24:33.967Z,98799.53
2023-03-29T19:27:02.090Z,98804.69
2023-03-29T19:29:29.316Z,98797.25
2023-03-29T19:31:57.495Z,98795.00
2023-03-29T19:34:24.915Z,98793.81
2023-03-29T19:36:53.725Z,98799.81
2023-03-29T19:39:22.438Z,98800.78
2023-03-29T19:41:49.615Z,98800.69
2023-03-29T19:44:16.913Z,98795.41
2023-03-29T19:46:44.314Z,98804.94
2023-03-29T19:49:13.930Z,98813.16
2023-03-29T19:51:42.492Z,98813.75
2023-03-29T19:54:13.172Z,98813.63
2023-03-29T19:56:41.010Z,98816.59
2023-03-29T19:59:11.314Z,98819.53
2023-03-29T20:01:39.680Z,98820.00
2023-03-29T20:04:07.089Z,98823.22
2023-03-29T20:06:34.631Z,98816.50
2023-03-29T20:09:02.318Z,98825.16
2023-03-29T20:11:29.687Z,98827.28
2023-03-29T20:13:57.684Z,98820.59
2023-03-29T20:16:26.344Z,98827.59
2023-03-29T20:18:54.312Z,98831.56
2023-03-29T20:21:21.441Z,98836.25
2023-03-29T20:23:48.599Z,98833.28
2023-03-29T20:26:15.670Z,98842.47
2023-03-29T20:28:42.977Z,98846.50
2023-03-29T20:31:13.754Z,98848.66
2023-03-29T20:33:41.845Z,98838.09
2023-03-29T20:36:16.691Z,98845.38
2023-03-29T20:38:45.455Z,98844.41
2023-03-29T20:41:14.302Z,98847.19
2023-03-29T20:43:47.185Z,98843.25
2023-03-29T20:46:24.247Z,98845.56
2023-03-29T20:48:54.776Z,98837.72
2023-03-29T20:51:28.433Z,98827.84
2023-03-29T20:54:02.841Z,98836.09
2023-03-29T20:56:33.825Z,98840.94
2023-03-29T20:59:01.440Z,98846.50
2023-03-29T21:01:30.556Z,98849.34
2023-03-29T21:03:57.990Z,98846.31
2023-03-29T21:06:25.304Z,98843.63
2023-03-29T21:08:52.942Z,98843.91
2023-03-29T21:11:25.182Z,98844.00
2023-03-29T21:14:03.022Z,98844.19
2023-03-29T21:16:32.332Z,98840.72
2023-03-29T21:19:01.930Z,98837.50
2023-03-29T21:21:36.329Z,98845.19
2023-03-29T21:24:06.081Z,98845.25
2023-03-29T21:26:33.669Z,98850.22
2023-03-29T21:29:01.581Z,98847.97
2023-03-29T21:31:28.878Z,98853.00
2023-03-29T21:34:01.363Z,98853.00
2023-03-29T21:36:28.682Z,98842.84
2023-03-29T21:38:56.268Z,98850.56
2023-03-29T21:41:23.559Z,98862.13
2023-03-29T21:43:58.241Z,98862.34
2023-03-29T21:46:30.859Z,98857.31
2023-03-29T21:48:58.496Z,98849.22
2023-03-29T21:51:29.127Z,98858.88
2023-03-29T21:53:56.790Z,98860.97
2023-03-29T21:56:23.874Z,98847.84
2023-03-29T21:58:51.763Z,98846.97
2023-03-29T22:01:18.857Z,98851.47
2023-03-29T22:03:46.996Z,98852.59
2023-03-29T22:06:15.700Z,98852.88
2023-03-29T22:08:42.990Z,98853.03
2023-03-29T22:11:20.471Z,98850.53
2023-03-29T22:13:52.366Z,98855.19
2023-03-29T22:16:26.307Z,98851.81
2023-03-29T22:18:56.202Z,98869.06
2023-03-29T22:21:27.684Z,98859.22
2023-03-29T22:24:01.666Z,98857.34
2023-03-29T22:26:34.401Z,98862.09
2023-03-29T22:29:04.813Z,98864.63
2023-03-29T22:31:32.478Z,98866.28
2023-03-29T22:34:01.218Z,98862.38
2023-03-29T22:36:37.446Z,98859.72
2023-03-29T22:39:07.729Z,98856.44
2023-03-29T22:41:34.796Z,98856.78
2023-03-29T22:44:02.404Z,98868.00
2023-03-29T22:46:30.464Z,98872.19
2023-03-29T22:48:58.281Z,98876.13
2023-03-29T22:51:25.525Z,98867.78
2023-03-29T22:53:54.475Z,98859.56
2023-03-29T22:56:22.307Z,98868.06
2023-03-29T22:58:50.056Z,98866.47
2023-03-29T23:01:17.205Z,98857.03
2023-03-29T23:03:44.941Z,98851.47
2023-03-29T23:06:12.214Z,98846.75
2023-03-29T23:08:39.846Z,98858.19
2023-03-29T23:11:07.996Z,98867.44
2023-03-29T23:13:35.430Z,98863.22
2023-03-29T23:16:03.893Z,98864.03
2023-03-29T23:18:35.146Z,98854.25
2023-03-29T23:21:02.839Z,98862.88
2023-03-29T23:23:30.153Z,98859.47
2023-03-29T23:25:57.715Z,98860.78
2023-03-29T23:28:27.690Z,98855.09
2023-03-29T23:31:18.608Z,98868.16
2023-03-29T23:33:46.597Z,98855.41
2023-03-29T23:36:15.967Z,98838.41
2023-03-29T23:38:45.695Z,98831.06
2023-03-29T23:41:13.759Z,98830.81
2023-03-29T23:43:44.027Z,98827.09
2023-03-29T23:46:14.590Z,98831.69
2023-03-29T23:48:49.542Z,98841.75
2023-03-29T23:51:19.375Z,98839.69
2023-03-29T23:53:50.918Z,98850.56
2023-03-29T23:56:18.344Z,98849.19
2023-03-29T23:58:45.609Z,98868.13
